sensor_id;sensor_type;location;lat;lon;timestamp;pressure;altitude;pressure_sealevel;temperature;humidity
54369;BME280;40266;52.434;17.056;2023-09-08T00:02:21;101514.52;;;13.70;99.54
54369;BME280;40266;52.434;17.056;2023-09-08T00:05:04;101511.90;;;13.68;99.60
54369;BME280;40266;52.434;17.056;2023-09-08T00:07:48;101507.21;;;13.67;99.74
54369;BME280;40266;52.434;17.056;2023-09-08T00:10:31;101507.77;;;13.65;99.78
54369;BME280;40266;52.434;17.056;2023-09-08T00:13:14;101500.24;;;13.63;99.92
54369;BME280;40266;52.434;17.056;2023-09-08T00:15:57;101499.92;;;13.62;99.94
54369;BME280;40266;52.434;17.056;2023-09-08T00:18:40;101496.44;;;13.61;99.96
54369;BME280;40266;52.434;17.056;2023-09-08T00:21:26;101495.05;;;13.59;100.00
54369;BME280;40266;52.434;17.056;2023-09-08T00:24:10;101495.42;;;13.58;99.99
54369;BME280;40266;52.434;17.056;2023-09-08T00:26:53;101496.52;;;13.56;100.00
54369;BME280;40266;52.434;17.056;2023-09-08T00:29:36;101490.59;;;13.53;100.00
54369;BME280;40266;52.434;17.056;2023-09-08T00:32:19;101491.87;;;13.50;100.00
54369;BME280;40266;52.434;17.056;2023-09-08T00:35:06;101489.96;;;13.47;100.00
54369;BME280;40266;52.434;17.056;2023-09-08T00:37:49;101486.34;;;13.44;100.00
54369;BME280;40266;52.434;17.056;2023-09-08T00:40:32;101482.70;;;13.42;100.00
54369;BME280;40266;52.434;17.056;2023-09-08T00:43:16;101485.71;;;13.40;100.00
54369;BME280;40266;52.434;17.056;2023-09-08T00:46:00;101490.48;;;13.38;100.00
54369;BME280;40266;52.434;17.056;2023-09-08T00:48:45;101491.58;;;13.36;100.00
54369;BME280;40266;52.434;17.056;2023-09-08T00:51:28;101491.25;;;13.33;100.00
54369;BME280;40266;52.434;17.056;2023-09-08T00:54:11;101491.33;;;13.30;100.00
54369;BME280;40266;52.434;17.056;2023-09-08T00:56:56;101490.45;;;13.27;100.00
54369;BME280;40266;52.434;17.056;2023-09-08T00:59:40;101485.92;;;13.25;100.00
54369;BME280;40266;52.434;17.056;2023-09-08T01:02:22;101485.44;;;13.22;100.00
54369;BME280;40266;52.434;17.056;2023-09-08T01:05:06;101484.79;;;13.19;100.00
54369;BME280;40266;52.434;17.056;2023-09-08T01:07:50;101487.10;;;13.17;100.00
54369;BME280;40266;52.434;17.056;2023-09-08T01:10:35;101487.32;;;13.13;100.00
54369;BME280;40266;52.434;17.056;2023-09-08T01:13:20;101484.38;;;13.11;100.00
54369;BME280;40266;52.434;17.056;2023-09-08T01:16:02;101482.67;;;13.08;100.00
54369;BME280;40266;52.434;17.056;2023-09-08T01:18:46;101481.48;;;13.06;100.00
54369;BME280;40266;52.434;17.056;2023-09-08T01:27:52;101480.02;;;12.98;100.00
54369;BME280;40266;52.434;17.056;2023-09-08T01:30:36;101481.83;;;12.95;100.00
54369;BME280;40266;52.434;17.056;2023-09-08T01:33:20;101479.90;;;12.93;100.00
54369;BME280;40266;52.434;17.056;2023-09-08T01:36:04;101479.93;;;12.91;100.00
54369;BME280;40266;52.434;17.056;2023-09-08T01:38:48;101478.38;;;12.89;100.00
54369;BME280;40266;52.434;17.056;2023-09-08T01:41:31;101479.45;;;12.87;100.00
54369;BME280;40266;52.434;17.056;2023-09-08T01:44:16;101478.06;;;12.87;100.00
54369;BME280;40266;52.434;17.056;2023-09-08T01:46:59;101478.27;;;12.86;100.00
54369;BME280;40266;52.434;17.056;2023-09-08T01:49:42;101476.52;;;12.84;100.00
54369;BME280;40266;52.434;17.056;2023-09-08T01:52:25;101474.44;;;12.82;100.00
54369;BME280;40266;52.434;17.056;2023-09-08T01:55:10;101474.82;;;12.80;100.00
54369;BME280;40266;52.434;17.056;2023-09-08T01:57:54;101472.05;;;12.78;100.00
54369;BME280;40266;52.434;17.056;2023-09-08T02:00:37;101469.44;;;12.77;100.00
54369;BME280;40266;52.434;17.056;2023-09-08T02:03:22;101465.27;;;12.75;100.00
54369;BME280;40266;52.434;17.056;2023-09-08T02:06:05;101466.33;;;12.73;100.00
54369;BME280;40266;52.434;17.056;2023-09-08T02:08:48;101468.44;;;12.73;100.00
54369;BME280;40266;52.434;17.056;2023-09-08T02:11:31;101472.67;;;12.71;100.00
54369;BME280;40266;52.434;17.056;2023-09-08T02:14:13;101466.92;;;12.69;100.00
54369;BME280;40266;52.434;17.056;2023-09-08T02:16:56;101466.59;;;12.67;100.00
54369;BME280;40266;52.434;17.056;2023-09-08T02:19:40;101464.48;;;12.66;100.00
54369;BME280;40266;52.434;17.056;2023-09-08T02:22:24;101465.20;;;12.65;100.00
54369;BME280;40266;52.434;17.056;2023-09-08T02:25:07;101461.72;;;12.64;100.00
54369;BME280;40266;52.434;17.056;2023-09-08T02:27:51;101464.73;;;12.62;100.00
54369;BME280;40266;52.434;17.056;2023-09-08T02:30:34;101464.57;;;12.61;100.00
54369;BME280;40266;52.434;17.056;2023-09-08T02:33:17;101467.56;;;12.59;100.00
54369;BME280;40266;52.434;17.056;2023-09-08T02:36:04;101466.71;;;12.58;100.00
54369;BME280;40266;52.434;17.056;2023-09-08T02:38:54;101460.60;;;12.56;100.00
54369;BME280;40266;52.434;17.056;2023-09-08T02:41:39;101462.90;;;12.55;100.00
54369;BME280;40266;52.434;17.056;2023-09-08T02:44:22;101462.58;;;12.53;100.00
54369;BME280;40266;52.434;17.056;2023-09-08T02:47:05;101458.03;;;12.51;100.00
54369;BME280;40266;52.434;17.056;2023-09-08T02:49:50;101457.70;;;12.50;100.00
54369;BME280;40266;52.434;17.056;2023-09-08T02:52:34;101458.25;;;12.49;100.00
54369;BME280;40266;52.434;17.056;2023-09-08T02:55:17;101458.10;;;12.47;100.00
54369;BME280;40266;52.434;17.056;2023-09-08T02:58:00;101458.13;;;12.45;100.00
54369;BME280;40266;52.434;17.056;2023-09-08T03:00:43;101457.10;;;12.43;100.00
54369;BME280;40266;52.434;17.056;2023-09-08T03:03:25;101459.73;;;12.41;100.00
54369;BME280;40266;52.434;17.056;2023-09-08T03:06:10;101452.23;;;12.39;100.00
54369;BME280;40266;52.434;17.056;2023-09-08T03:08:54;101452.42;;;12.37;100.00
54369;BME280;40266;52.434;17.056;2023-09-08T03:11:38;101449.13;;;12.35;100.00
54369;BME280;40266;52.434;17.056;2023-09-08T03:14:22;101452.66;;;12.34;100.00
54369;BME280;40266;52.434;17.056;2023-09-08T03:17:05;101449.00;;;12.31;100.00
54369;BME280;40266;52.434;17.056;2023-09-08T03:19:48;101449.03;;;12.30;100.00
54369;BME280;40266;52.434;17.056;2023-09-08T03:22:31;101450.27;;;12.28;100.00
54369;BME280;40266;52.434;17.056;2023-09-08T03:25:14;101447.48;;;12.26;100.00
54369;BME280;40266;52.434;17.056;2023-09-08T03:27:58;101451.89;;;12.24;100.00
54369;BME280;40266;52.434;17.056;2023-09-08T03:30:41;101448.92;;;12.23;100.00
54369;BME280;40266;52.434;17.056;2023-09-08T03:33:24;101449.46;;;12.22;100.00
54369;BME280;40266;52.434;17.056;2023-09-08T03:36:07;101451.24;;;12.20;100.00
54369;BME280;40266;52.434;17.056;2023-09-08T03:38:50;101453.02;;;12.18;100.00
54369;BME280;40266;52.434;17.056;2023-09-08T03:41:33;101449.53;;;12.16;100.00
54369;BME280;40266;52.434;17.056;2023-09-08T03:44:16;101449.38;;;12.15;100.00
54369;BME280;40266;52.434;17.056;2023-09-08T03:46:59;101450.26;;;12.14;100.00
54369;BME280;40266;52.434;17.056;2023-09-08T03:49:45;101447.48;;;12.12;100.00
54369;BME280;40266;52.434;17.056;2023-09-08T03:52:29;101449.44;;;12.09;100.00
54369;BME280;40266;52.434;17.056;2023-09-08T03:55:12;101446.48;;;12.07;100.00
54369;BME280;40266;52.434;17.056;2023-09-08T03:57:55;101447.38;;;12.05;100.00
54369;BME280;40266;52.434;17.056;2023-09-08T04:00:38;101446.89;;;12.02;100.00
54369;BME280;40266;52.434;17.056;2023-09-08T04:03:21;101444.80;;;12.00;100.00
54369;BME280;40266;52.434;17.056;2023-09-08T04:06:04;101449.90;;;11.98;100.00
54369;BME280;40266;52.434;17.056;2023-09-08T04:08:48;101451.16;;;11.97;100.00
54369;BME280;40266;52.434;17.056;2023-09-08T04:11:31;101449.60;;;11.94;100.00
54369;BME280;40266;52.434;17.056;2023-09-08T04:14:14;101451.37;;;11.93;100.00
54369;BME280;40266;52.434;17.056;2023-09-08T04:16:56;101451.56;;;11.91;100.00
54369;BME280;40266;52.434;17.056;2023-09-08T04:19:40;101448.95;;;11.89;100.00
54369;BME280;40266;52.434;17.056;2023-09-08T04:22:23;101450.36;;;11.88;100.00
54369;BME280;40266;52.434;17.056;2023-09-08T04:25:06;101452.11;;;11.87;100.00
54369;BME280;40266;52.434;17.056;2023-09-08T04:27:49;101453.34;;;11.86;100.00
54369;BME280;40266;52.434;17.056;2023-09-08T04:30:32;101452.11;;;11.87;100.00
54369;BME280;40266;52.434;17.056;2023-09-08T04:33:15;101453.84;;;11.87;100.00
54369;BME280;40266;52.434;17.056;2023-09-08T04:35:58;101452.82;;;11.87;100.00
54369;BME280;40266;52.434;17.056;2023-09-08T04:38:41;101455.96;;;11.88;100.00
54369;BME280;40266;52.434;17.056;2023-09-08T04:41:24;101455.95;;;11.90;100.00
54369;BME280;40266;52.434;17.056;2023-09-08T04:44:07;101453.84;;;11.91;100.00
54369;BME280;40266;52.434;17.056;2023-09-08T04:46:52;101454.70;;;11.93;100.00
54369;BME280;40266;52.434;17.056;2023-09-08T04:49:35;101451.00;;;11.95;100.00
54369;BME280;40266;52.434;17.056;2023-09-08T04:52:19;101452.35;;;11.98;100.00
54369;BME280;40266;52.434;17.056;2023-09-08T04:55:03;101453.90;;;12.01;100.00
54369;BME280;40266;52.434;17.056;2023-09-08T04:57:46;101451.74;;;12.05;100.00
54369;BME280;40266;52.434;17.056;2023-09-08T05:00:29;101447.69;;;12.09;100.00
54369;BME280;40266;52.434;17.056;2023-09-08T05:03:12;101455.17;;;12.14;100.00
54369;BME280;40266;52.434;17.056;2023-09-08T05:05:55;101456.71;;;12.17;100.00
54369;BME280;40266;52.434;17.056;2023-09-08T05:08:38;101456.13;;;12.21;100.00
54369;BME280;40266;52.434;17.056;2023-09-08T05:11:21;101450.11;;;12.26;100.00
54369;BME280;40266;52.434;17.056;2023-09-08T05:14:04;101451.62;;;12.33;100.00
54369;BME280;40266;52.434;17.056;2023-09-08T05:16:47;101453.13;;;12.38;100.00
54369;BME280;40266;52.434;17.056;2023-09-08T05:19:40;101448.67;;;12.44;100.00
54369;BME280;40266;52.434;17.056;2023-09-08T05:22:23;101452.80;;;12.50;100.00
54369;BME280;40266;52.434;17.056;2023-09-08T05:25:09;101453.06;;;12.57;100.00
54369;BME280;40266;52.434;17.056;2023-09-08T05:27:52;101454.38;;;12.63;100.00
54369;BME280;40266;52.434;17.056;2023-09-08T05:30:36;101455.16;;;12.70;100.00
54369;BME280;40266;52.434;17.056;2023-09-08T05:33:19;101457.86;;;12.77;100.00
54369;BME280;40266;52.434;17.056;2023-09-08T05:36:02;101454.23;;;12.86;100.00
54369;BME280;40266;52.434;17.056;2023-09-08T05:38:45;101456.04;;;12.95;100.00
54369;BME280;40266;52.434;17.056;2023-09-08T05:41:28;101458.52;;;13.05;100.00
54369;BME280;40266;52.434;17.056;2023-09-08T05:44:11;101458.55;;;13.14;100.00
54369;BME280;40266;52.434;17.056;2023-09-08T05:46:54;101459.10;;;13.24;100.00
54369;BME280;40266;52.434;17.056;2023-09-08T05:49:39;101461.05;;;13.35;100.00
54369;BME280;40266;52.434;17.056;2023-09-08T05:52:22;101463.52;;;13.46;100.00
54369;BME280;40266;52.434;17.056;2023-09-08T05:55:06;101465.07;;;13.57;100.00
54369;BME280;40266;52.434;17.056;2023-09-08T05:57:50;101462.58;;;13.69;100.00
54369;BME280;40266;52.434;17.056;2023-09-08T06:00:33;101463.40;;;13.82;100.00
54369;BME280;40266;52.434;17.056;2023-09-08T06:03:16;101461.92;;;13.96;100.00
54369;BME280;40266;52.434;17.056;2023-09-08T06:06:00;101462.52;;;14.10;100.00
54369;BME280;40266;52.434;17.056;2023-09-08T06:08:43;101463.84;;;14.24;100.00
54369;BME280;40266;52.434;17.056;2023-09-08T06:11:26;101462.31;;;14.38;100.00
54369;BME280;40266;52.434;17.056;2023-09-08T06:14:10;101460.92;;;14.55;100.00
54369;BME280;40266;52.434;17.056;2023-09-08T06:16:54;101461.27;;;14.73;100.00
54369;BME280;40266;52.434;17.056;2023-09-08T06:19:37;101458.13;;;14.87;100.00
54369;BME280;40266;52.434;17.056;2023-09-08T06:22:22;101457.27;;;15.01;100.00
54369;BME280;40266;52.434;17.056;2023-09-08T06:25:06;101454.66;;;15.15;100.00
54369;BME280;40266;52.434;17.056;2023-09-08T06:27:49;101456.69;;;15.32;100.00
54369;BME280;40266;52.434;17.056;2023-09-08T06:30:33;101451.93;;;15.47;100.00
54369;BME280;40266;52.434;17.056;2023-09-08T06:33:16;101453.66;;;15.62;100.00
54369;BME280;40266;52.434;17.056;2023-09-08T06:35:59;101455.23;;;15.77;100.00
54369;BME280;40266;52.434;17.056;2023-09-08T06:38:42;101456.42;;;15.92;100.00
54369;BME280;40266;52.434;17.056;2023-09-08T06:41:25;101456.55;;;16.07;100.00
54369;BME280;40266;52.434;17.056;2023-09-08T06:44:10;101457.38;;;16.27;100.00
54369;BME280;40266;52.434;17.056;2023-09-08T06:46:54;101458.45;;;16.81;100.00
54369;BME280;40266;52.434;17.056;2023-09-08T06:49:37;101457.28;;;17.29;100.00
54369;BME280;40266;52.434;17.056;2023-09-08T06:52:20;101457.44;;;17.40;100.00
54369;BME280;40266;52.434;17.056;2023-09-08T06:55:03;101456.20;;;17.51;100.00
54369;BME280;40266;52.434;17.056;2023-09-08T06:57:47;101461.25;;;17.63;100.00
54369;BME280;40266;52.434;17.056;2023-09-08T07:00:31;101463.34;;;17.75;100.00
54369;BME280;40266;52.434;17.056;2023-09-08T07:03:14;101460.81;;;17.92;100.00
54369;BME280;40266;52.434;17.056;2023-09-08T07:05:57;101462.59;;;18.17;100.00
54369;BME280;40266;52.434;17.056;2023-09-08T07:08:40;101460.17;;;18.34;100.00
54369;BME280;40266;52.434;17.056;2023-09-08T07:11:23;101463.05;;;18.66;100.00
54369;BME280;40266;52.434;17.056;2023-09-08T07:14:06;101459.52;;;19.19;100.00
54369;BME280;40266;52.434;17.056;2023-09-08T07:16:49;101457.15;;;19.43;100.00
54369;BME280;40266;52.434;17.056;2023-09-08T07:19:33;101458.59;;;19.51;100.00
54369;BME280;40266;52.434;17.056;2023-09-08T07:22:16;101461.96;;;19.63;100.00
54369;BME280;40266;52.434;17.056;2023-09-08T07:24:59;101460.76;;;19.75;100.00
54369;BME280;40266;52.434;17.056;2023-09-08T07:27:42;101460.05;;;19.84;100.00
54369;BME280;40266;52.434;17.056;2023-09-08T07:30:25;101460.00;;;20.01;99.91
54369;BME280;40266;52.434;17.056;2023-09-08T07:33:10;101463.89;;;20.40;99.20
54369;BME280;40266;52.434;17.056;2023-09-08T07:35:54;101457.15;;;20.86;97.66
54369;BME280;40266;52.434;17.056;2023-09-08T07:38:38;101453.84;;;21.03;95.60
54369;BME280;40266;52.434;17.056;2023-09-08T07:41:22;101452.89;;;21.37;95.08
54369;BME280;40266;52.434;17.056;2023-09-08T07:44:06;101451.55;;;21.94;94.34
54369;BME280;40266;52.434;17.056;2023-09-08T07:46:49;101449.05;;;22.25;93.17
54369;BME280;40266;52.434;17.056;2023-09-08T07:49:34;101452.48;;;22.25;91.51
54369;BME280;40266;52.434;17.056;2023-09-08T07:52:17;101450.34;;;22.31;90.05
54369;BME280;40266;52.434;17.056;2023-09-08T07:55:00;101446.80;;;22.88;88.87
54369;BME280;40266;52.434;17.056;2023-09-08T07:57:44;101448.59;;;23.35;86.18
54369;BME280;40266;52.434;17.056;2023-09-08T08:00:28;101445.84;;;23.34;85.25
54369;BME280;40266;52.434;17.056;2023-09-08T08:03:11;101444.23;;;23.24;84.30
54369;BME280;40266;52.434;17.056;2023-09-08T08:05:56;101440.08;;;23.35;82.98
54369;BME280;40266;52.434;17.056;2023-09-08T08:08:40;101437.09;;;23.34;81.31
54369;BME280;40266;52.434;17.056;2023-09-08T08:11:23;101435.09;;;23.23;80.00
54369;BME280;40266;52.434;17.056;2023-09-08T08:14:07;101436.59;;;23.21;79.77
54369;BME280;40266;52.434;17.056;2023-09-08T08:16:50;101436.89;;;23.19;79.14
54369;BME280;40266;52.434;17.056;2023-09-08T08:19:32;101429.87;;;23.14;78.92
54369;BME280;40266;52.434;17.056;2023-09-08T08:22:16;101431.84;;;23.11;78.38
54369;BME280;40266;52.434;17.056;2023-09-08T08:24:59;101429.12;;;23.08;78.10
54369;BME280;40266;52.434;17.056;2023-09-08T08:27:41;101428.64;;;23.08;78.30
54369;BME280;40266;52.434;17.056;2023-09-08T08:30:25;101429.06;;;23.10;75.15
54369;BME280;40266;52.434;17.056;2023-09-08T08:33:08;101425.94;;;23.35;73.10
54369;BME280;40266;52.434;17.056;2023-09-08T08:35:52;101426.67;;;23.74;67.49
54369;BME280;40266;52.434;17.056;2023-09-08T08:38:35;101427.27;;;23.85;68.48
54369;BME280;40266;52.434;17.056;2023-09-08T08:41:19;101426.30;;;23.89;68.12
54369;BME280;40266;52.434;17.056;2023-09-08T08:44:02;101429.05;;;23.91;68.10
54369;BME280;40266;52.434;17.056;2023-09-08T08:46:46;101428.41;;;23.98;69.66
54369;BME280;40266;52.434;17.056;2023-09-08T08:49:31;101425.14;;;24.02;68.50
54369;BME280;40266;52.434;17.056;2023-09-08T08:52:15;101424.40;;;24.08;66.25
54369;BME280;40266;52.434;17.056;2023-09-08T08:55:00;101420.42;;;24.15;67.99
54369;BME280;40266;52.434;17.056;2023-09-08T08:57:43;101419.68;;;24.18;69.06
54369;BME280;40266;52.434;17.056;2023-09-08T09:00:27;101419.47;;;24.22;66.77
54369;BME280;40266;52.434;17.056;2023-09-08T09:03:10;101420.44;;;24.29;64.24
54369;BME280;40266;52.434;17.056;2023-09-08T09:05:57;101417.95;;;24.37;65.28
54369;BME280;40266;52.434;17.056;2023-09-08T09:08:45;101415.71;;;24.44;63.42
54369;BME280;40266;52.434;17.056;2023-09-08T09:11:30;101416.02;;;24.51;63.38
54369;BME280;40266;52.434;17.056;2023-09-08T09:14:14;101410.98;;;24.57;63.62
54369;BME280;40266;52.434;17.056;2023-09-08T09:16:56;101406.48;;;24.66;64.15
54369;BME280;40266;52.434;17.056;2023-09-08T09:19:40;101405.39;;;24.75;64.65
54369;BME280;40266;52.434;17.056;2023-09-08T09:22:23;101405.04;;;24.83;63.39
54369;BME280;40266;52.434;17.056;2023-09-08T09:25:06;101403.33;;;24.90;62.50
54369;BME280;40266;52.434;17.056;2023-09-08T09:27:58;101403.59;;;24.96;60.85
54369;BME280;40266;52.434;17.056;2023-09-08T09:30:50;101398.21;;;25.05;60.63
54369;BME280;40266;52.434;17.056;2023-09-08T09:33:39;101394.88;;;25.15;61.09
54369;BME280;40266;52.434;17.056;2023-09-08T09:36:22;101392.14;;;25.21;60.63
54369;BME280;40266;52.434;17.056;2023-09-08T09:39:05;101390.44;;;25.28;58.46
54369;BME280;40266;52.434;17.056;2023-09-08T09:41:54;101385.05;;;25.36;59.69
54369;BME280;40266;52.434;17.056;2023-09-08T09:44:37;101388.40;;;25.42;57.11
54369;BME280;40266;52.434;17.056;2023-09-08T09:47:20;101384.90;;;25.46;56.05
54369;BME280;40266;52.434;17.056;2023-09-08T09:50:03;101384.39;;;25.51;57.68
54369;BME280;40266;52.434;17.056;2023-09-08T09:52:47;101382.46;;;25.58;58.23
54369;BME280;40266;52.434;17.056;2023-09-08T09:55:31;101381.80;;;25.60;54.96
54369;BME280;40266;52.434;17.056;2023-09-08T09:58:14;101380.69;;;25.63;53.80
54369;BME280;40266;52.434;17.056;2023-09-08T10:00:59;101379.45;;;25.68;55.61
54369;BME280;40266;52.434;17.056;2023-09-08T10:03:43;101377.85;;;25.73;55.08
54369;BME280;40266;52.434;17.056;2023-09-08T10:06:27;101371.77;;;25.78;54.47
54369;BME280;40266;52.434;17.056;2023-09-08T10:09:10;101370.94;;;25.82;55.16
54369;BME280;40266;52.434;17.056;2023-09-08T10:12:01;101367.96;;;25.86;55.00
54369;BME280;40266;52.434;17.056;2023-09-08T10:14:48;101372.73;;;25.87;53.17
54369;BME280;40266;52.434;17.056;2023-09-08T10:17:33;101374.33;;;25.90;52.54
54369;BME280;40266;52.434;17.056;2023-09-08T10:20:18;101372.77;;;25.93;51.48
54369;BME280;40266;52.434;17.056;2023-09-08T10:23:07;101369.92;;;25.92;50.78
54369;BME280;40266;52.434;17.056;2023-09-08T10:25:59;101368.83;;;25.95;51.74
54369;BME280;40266;52.434;17.056;2023-09-08T10:28:45;101366.18;;;25.99;51.85
54369;BME280;40266;52.434;17.056;2023-09-08T10:31:29;101362.42;;;26.05;50.51
54369;BME280;40266;52.434;17.056;2023-09-08T10:34:13;101361.46;;;26.08;50.64
54369;BME280;40266;52.434;17.056;2023-09-08T10:36:56;101361.35;;;26.12;50.84
54369;BME280;40266;52.434;17.056;2023-09-08T10:39:39;101361.77;;;26.18;51.06
54369;BME280;40266;52.434;17.056;2023-09-08T10:42:25;101365.49;;;26.21;50.58
54369;BME280;40266;52.434;17.056;2023-09-08T10:45:18;101362.65;;;26.23;50.62
54369;BME280;40266;52.434;17.056;2023-09-08T10:48:01;101358.82;;;26.27;50.11
54369;BME280;40266;52.434;17.056;2023-09-08T10:50:44;101358.27;;;26.29;49.98
54369;BME280;40266;52.434;17.056;2023-09-08T10:53:28;101353.92;;;26.32;51.79
54369;BME280;40266;52.434;17.056;2023-09-08T10:56:11;101347.31;;;26.37;52.20
54369;BME280;40266;52.434;17.056;2023-09-08T10:58:59;101350.03;;;26.39;50.60
54369;BME280;40266;52.434;17.056;2023-09-08T11:01:43;101345.70;;;26.42;49.31
54369;BME280;40266;52.434;17.056;2023-09-08T11:04:26;101347.54;;;26.42;48.14
54369;BME280;40266;52.434;17.056;2023-09-08T11:07:10;101345.07;;;26.43;47.62
54369;BME280;40266;52.434;17.056;2023-09-08T11:09:53;101338.29;;;26.48;47.17
54369;BME280;40266;52.434;17.056;2023-09-08T11:12:36;101339.08;;;26.49;44.67
54369;BME280;40266;52.434;17.056;2023-09-08T11:15:19;101339.94;;;26.50;45.56
54369;BME280;40266;52.434;17.056;2023-09-08T11:18:06;101339.30;;;26.54;46.76
54369;BME280;40266;52.434;17.056;2023-09-08T11:20:54;101334.98;;;26.57;46.35
54369;BME280;40266;52.434;17.056;2023-09-08T11:23:37;101334.51;;;26.61;46.29
54369;BME280;40266;52.434;17.056;2023-09-08T11:26:21;101332.95;;;26.65;47.09
54369;BME280;40266;52.434;17.056;2023-09-08T11:29:05;101328.25;;;26.65;47.55
54369;BME280;40266;52.434;17.056;2023-09-08T11:31:52;101324.31;;;26.68;48.52
54369;BME280;40266;52.434;17.056;2023-09-08T11:34:35;101322.08;;;26.74;49.37
54369;BME280;40266;52.434;17.056;2023-09-08T11:37:19;101319.35;;;26.77;48.97
54369;BME280;40266;52.434;17.056;2023-09-08T11:40:04;101319.23;;;26.78;49.31
54369;BME280;40266;52.434;17.056;2023-09-08T11:42:57;101318.23;;;26.80;47.86
54369;BME280;40266;52.434;17.056;2023-09-08T11:45:42;101315.85;;;26.80;47.58
54369;BME280;40266;52.434;17.056;2023-09-08T11:48:26;101315.38;;;26.82;46.73
54369;BME280;40266;52.434;17.056;2023-09-08T11:51:10;101312.98;;;26.88;47.22
54369;BME280;40266;52.434;17.056;2023-09-08T11:53:53;101312.13;;;26.91;47.14
54369;BME280;40266;52.434;17.056;2023-09-08T11:56:36;101309.04;;;26.89;47.53
54369;BME280;40266;52.434;17.056;2023-09-08T11:59:22;101305.89;;;26.89;46.88
54369;BME280;40266;52.434;17.056;2023-09-08T12:02:05;101305.81;;;26.92;46.99
54369;BME280;40266;52.434;17.056;2023-09-08T12:04:53;101305.16;;;26.95;47.06
54369;BME280;40266;52.434;17.056;2023-09-08T12:07:37;101301.06;;;26.95;47.50
54369;BME280;40266;52.434;17.056;2023-09-08T12:10:21;101301.19;;;26.96;47.15
54369;BME280;40266;52.434;17.056;2023-09-08T12:13:04;101298.58;;;26.98;47.27
54369;BME280;40266;52.434;17.056;2023-09-08T12:15:47;101292.82;;;27.00;47.60
54369;BME280;40266;52.434;17.056;2023-09-08T12:18:38;101290.14;;;27.02;46.39
54369;BME280;40266;52.434;17.056;2023-09-08T12:21:22;101290.90;;;27.06;46.50
54369;BME280;40266;52.434;17.056;2023-09-08T12:24:05;101288.24;;;27.08;47.51
54369;BME280;40266;52.434;17.056;2023-09-08T12:26:48;101285.56;;;27.06;47.42
54369;BME280;40266;52.434;17.056;2023-09-08T12:29:31;101279.77;;;27.05;46.96
54369;BME280;40266;52.434;17.056;2023-09-08T12:32:14;101285.94;;;27.04;47.22
54369;BME280;40266;52.434;17.056;2023-09-08T12:34:58;101284.52;;;27.05;46.50
54369;BME280;40266;52.434;17.056;2023-09-08T12:37:41;101280.79;;;27.10;46.45
54369;BME280;40266;52.434;17.056;2023-09-08T12:40:29;101284.17;;;27.12;46.90
54369;BME280;40266;52.434;17.056;2023-09-08T12:43:12;101284.33;;;27.17;45.51
54369;BME280;40266;52.434;17.056;2023-09-08T12:46:09;101278.30;;;27.22;45.54
54369;BME280;40266;52.434;17.056;2023-09-08T12:48:52;101272.29;;;27.23;45.88
54369;BME280;40266;52.434;17.056;2023-09-08T12:51:35;101271.95;;;27.23;45.19
54369;BME280;40266;52.434;17.056;2023-09-08T12:54:18;101267.72;;;27.22;45.08
54369;BME280;40266;52.434;17.056;2023-09-08T12:57:01;101265.83;;;27.23;45.81
54369;BME280;40266;52.434;17.056;2023-09-08T12:59:48;101266.50;;;27.24;44.76
54369;BME280;40266;52.434;17.056;2023-09-08T13:02:34;101265.88;;;27.25;43.51
54369;BME280;40266;52.434;17.056;2023-09-08T13:05:17;101261.73;;;27.25;43.16
54369;BME280;40266;52.434;17.056;2023-09-08T13:08:00;101255.49;;;27.29;44.17
54369;BME280;40266;52.434;17.056;2023-09-08T13:10:43;101249.83;;;27.30;44.44
54369;BME280;40266;52.434;17.056;2023-09-08T13:13:26;101244.57;;;27.31;45.22
54369;BME280;40266;52.434;17.056;2023-09-08T13:16:11;101246.98;;;27.34;45.61
54369;BME280;40266;52.434;17.056;2023-09-08T13:18:55;101245.88;;;27.40;45.68
54369;BME280;40266;52.434;17.056;2023-09-08T13:21:38;101239.93;;;27.40;45.10
54369;BME280;40266;52.434;17.056;2023-09-08T13:24:21;101239.71;;;27.40;45.45
54369;BME280;40266;52.434;17.056;2023-09-08T13:27:05;101237.75;;;27.38;45.28
54369;BME280;40266;52.434;17.056;2023-09-08T13:29:48;101232.92;;;27.37;45.16
54369;BME280;40266;52.434;17.056;2023-09-08T13:32:31;101232.66;;;27.36;44.97
54369;BME280;40266;52.434;17.056;2023-09-08T13:35:14;101228.21;;;27.38;44.51
54369;BME280;40266;52.434;17.056;2023-09-08T13:37:57;101227.40;;;27.39;43.51
54369;BME280;40266;52.434;17.056;2023-09-08T13:40:42;101228.88;;;27.41;45.09
54369;BME280;40266;52.434;17.056;2023-09-08T13:43:25;101222.98;;;27.41;45.37
54369;BME280;40266;52.434;17.056;2023-09-08T13:46:09;101218.83;;;27.39;45.17
54369;BME280;40266;52.434;17.056;2023-09-08T13:48:52;101219.80;;;27.38;45.75
54369;BME280;40266;52.434;17.056;2023-09-08T13:51:37;101219.44;;;27.36;45.70
54369;BME280;40266;52.434;17.056;2023-09-08T13:54:21;101222.39;;;27.32;43.78
54369;BME280;40266;52.434;17.056;2023-09-08T13:57:06;101220.95;;;27.30;44.99
54369;BME280;40266;52.434;17.056;2023-09-08T13:59:51;101215.48;;;27.29;45.25
54369;BME280;40266;52.434;17.056;2023-09-08T14:02:39;101213.25;;;27.28;44.99
54369;BME280;40266;52.434;17.056;2023-09-08T14:05:26;101210.99;;;27.29;44.28
54369;BME280;40266;52.434;17.056;2023-09-08T14:08:12;101204.96;;;27.31;44.41